createdAt,value
2023-04-09T00:01:55.716Z,23.50
2023-04-09T00:06:57.342Z,18.95
2023-04-09T00:11:59.140Z,21.05
2023-04-09T00:17:01.461Z,22.35
2023-04-09T00:22:03.064Z,19.38
2023-04-09T00:27:04.698Z,18.70
2023-04-09T00:32:06.762Z,20.77
2023-04-09T00:37:08.569Z,21.00
2023-04-09T00:42:10.240Z,19.73
2023-04-09T00:47:12.052Z,18.92
2023-04-09T00:52:13.792Z,15.60
2023-04-09T00:57:15.985Z,20.05
2023-04-09T01:02:17.708Z,20.08
2023-04-09T01:07:54.965Z,18.42
2023-04-09T01:13:06.294Z,18.75
2023-04-09T01:18:41.179Z,17.95
2023-04-09T01:23:54.940Z,17.77
2023-04-09T01:29:00.619Z,17.63
2023-04-09T01:34:02.739Z,19.02
2023-04-09T01:39:05.207Z,18.30
2023-04-09T01:44:07.944Z,17.98
2023-04-09T01:49:10.510Z,15.60
2023-04-09T01:54:12.107Z,17.25
2023-04-09T01:59:14.323Z,15.60
2023-04-09T02:04:44.252Z,16.98
2023-04-09T02:09:48.654Z,17.55
2023-04-09T02:14:52.568Z,17.00
2023-04-09T02:19:54.182Z,20.52
2023-04-09T02:24:55.886Z,19.05
2023-04-09T02:29:57.607Z,20.42
2023-04-09T02:34:59.328Z,20.20
2023-04-09T02:40:00.997Z,18.70
2023-04-09T02:45:02.643Z,19.20
2023-04-09T02:50:07.481Z,20.63
2023-04-09T02:55:11.327Z,19.20
2023-04-09T03:00:13.454Z,17.77
2023-04-09T03:05:15.535Z,20.67
2023-04-09T03:10:17.206Z,20.33
2023-04-09T03:15:19.121Z,21.63
2023-04-09T03:20:20.725Z,22.08
2023-04-09T03:25:22.468Z,21.13
2023-04-09T03:30:27.750Z,22.02
2023-04-09T03:35:31.745Z,21.73
2023-04-09T03:40:36.511Z,20.60
2023-04-09T03:45:38.298Z,21.23
2023-04-09T03:50:54.240Z,22.25
2023-04-09T03:56:04.981Z,17.42
2023-04-09T04:01:07.894Z,19.55
2023-04-09T04:06:14.868Z,19.98
2023-04-09T04:11:42.674Z,19.73
2023-04-09T04:16:45.365Z,20.83
2023-04-09T04:21:52.245Z,19.08
2023-04-09T04:26:54.659Z,20.45
2023-04-09T04:31:57.466Z,19.30
2023-04-09T04:37:02.933Z,18.35
2023-04-09T04:42:07.487Z,20.02
2023-04-09T04:47:09.263Z,17.88
2023-04-09T04:52:11.364Z,18.58
2023-04-09T04:57:17.515Z,18.50
2023-04-09T05:02:20.419Z,16.45
2023-04-09T05:07:42.177Z,15.70
2023-04-09T05:12:44.373Z,13.95
2023-04-09T05:17:48.798Z,15.45
2023-04-09T05:22:52.626Z,16.33
2023-04-09T05:28:01.967Z,16.08
2023-04-09T05:33:05.509Z,17.10
2023-04-09T05:38:08.058Z,18.55
2023-04-09T05:43:09.951Z,15.60
2023-04-09T05:48:18.523Z,15.88
2023-04-09T05:53:21.185Z,13.55
2023-04-09T05:58:22.926Z,13.27
2023-04-09T06:03:25.643Z,13.98
2023-04-09T06:08:28.858Z,13.00
2023-04-09T06:13:30.597Z,13.95
2023-04-09T06:18:32.722Z,13.43
2023-04-09T06:23:36.035Z,13.00
2023-04-09T06:28:37.988Z,13.25
2023-04-09T06:33:39.643Z,13.70
2023-04-09T06:38:41.282Z,13.85
2023-04-09T06:43:42.911Z,14.00
2023-04-09T06:48:44.818Z,13.45
2023-04-09T06:53:48.223Z,14.45
2023-04-09T06:58:50.169Z,13.65
2023-04-09T07:03:52.542Z,15.25
2023-04-09T07:08:54.813Z,15.18
2023-04-09T07:13:56.961Z,16.63
2023-04-09T07:18:58.643Z,14.85
2023-04-09T07:24:00.704Z,15.10
2023-04-09T07:29:03.766Z,15.55
2023-04-09T07:34:05.488Z,17.23
2023-04-09T07:39:07.120Z,15.27
2023-04-09T07:44:09.431Z,17.02
2023-04-09T07:49:11.194Z,17.38
2023-04-09T07:54:12.862Z,16.75
2023-04-09T07:59:17.423Z,18.23
2023-04-09T08:04:19.411Z,15.93
2023-04-09T08:09:21.326Z,17.65
2023-04-09T08:14:22.929Z,14.40
2023-04-09T08:19:24.826Z,15.25
2023-04-09T08:24:27.351Z,13.73
2023-04-09T08:29:29.336Z,15.30
2023-04-09T08:34:30.977Z,14.23
2023-04-09T08:39:33.041Z,15.02
2023-04-09T08:44:34.826Z,14.23
2023-04-09T08:49:36.639Z,14.52
2023-04-09T08:54:38.409Z,14.38
2023-04-09T08:59:40.062Z,17.25
2023-04-09T09:04:49.114Z,15.52
2023-04-09T09:09:52.708Z,16.08
2023-04-09T09:14:54.413Z,15.77
2023-04-09T09:19:56.145Z,16.05
2023-04-09T09:24:57.969Z,15.73
2023-04-09T09:29:59.659Z,15.80
2023-04-09T09:35:05.329Z,15.25
2023-04-09T09:40:07.838Z,16.90
2023-04-09T09:45:19.573Z,16.48
2023-04-09T09:50:25.151Z,16.10
2023-04-09T09:55:27.960Z,14.35
2023-04-09T10:00:32.620Z,16.33
2023-04-09T10:05:36.245Z,15.48
2023-04-09T10:10:39.365Z,16.02
2023-04-09T10:15:43.217Z,15.38
2023-04-09T10:20:59.508Z,15.05
2023-04-09T10:26:01.753Z,15.23
2023-04-09T10:31:05.356Z,14.88
2023-04-09T10:36:11.121Z,15.50
2023-04-09T10:41:31.501Z,13.98
2023-04-09T10:46:36.895Z,15.63
2023-04-09T10:51:39.239Z,15.10
2023-04-09T10:56:40.898Z,13.93
2023-04-09T11:01:52.665Z,15.27
2023-04-09T11:06:54.718Z,16.48
2023-04-09T11:11:57.848Z,14.27
2023-04-09T11:16:59.540Z,14.63
2023-04-09T11:22:09.347Z,14.13
2023-04-09T11:27:14.154Z,15.43
2023-04-09T11:32:15.829Z,15.63
2023-04-09T11:37:18.479Z,14.65
2023-04-09T11:42:21.992Z,14.23
2023-04-09T11:47:23.711Z,14.02
2023-04-09T11:52:25.649Z,12.90
2023-04-09T11:57:43.189Z,15.15
2023-04-09T12:02:49.327Z,13.52
2023-04-09T12:07:56.284Z,11.30
2023-04-09T12:13:03.405Z,13.75
2023-04-09T12:18:08.569Z,13.93
2023-04-09T12:23:11.657Z,11.45
2023-04-09T12:28:18.668Z,16.40
2023-04-09T12:33:21.371Z,12.05
2023-04-09T12:38:22.988Z,12.32
2023-04-09T12:43:24.601Z,12.38
2023-04-09T12:48:26.793Z,11.90
2023-04-09T12:53:28.553Z,9.60
2023-04-09T12:58:31.399Z,11.05
2023-04-09T13:03:33.300Z,10.85
2023-04-09T13:08:35.254Z,10.45
2023-04-09T13:13:36.910Z,10.10
2023-04-09T13:18:38.509Z,10.93
2023-04-09T13:23:40.570Z,10.18
2023-04-09T13:28:43.084Z,11.48
2023-04-09T13:33:45.964Z,10.55
2023-04-09T13:38:49.325Z,12.05
2023-04-09T13:43:51.308Z,12.63
2023-04-09T13:48:53.363Z,12.98
2023-04-09T13:53:55.107Z,13.05
2023-04-09T13:58:56.880Z,14.18
2023-04-09T14:03:58.630Z,13.02
2023-04-09T14:09:00.558Z,13.15
2023-04-09T14:14:02.284Z,11.82
2023-04-09T14:19:03.868Z,11.50
2023-04-09T14:24:05.984Z,11.50
2023-04-09T14:29:07.775Z,11.18
2023-04-09T14:34:09.367Z,10.15
2023-04-09T14:39:11.282Z,10.20
2023-04-09T14:44:12.956Z,9.45
2023-04-09T14:49:14.626Z,9.25
2023-04-09T14:54:16.803Z,9.00
2023-04-09T14:59:18.488Z,9.13
2023-04-09T15:04:20.150Z,9.30
2023-04-09T15:09:21.800Z,8.25
2023-04-09T15:14:24.071Z,6.57
2023-04-09T15:19:25.912Z,6.05
2023-04-09T15:24:27.553Z,6.05
2023-04-09T15:29:29.221Z,6.97
2023-04-09T15:34:31.054Z,8.02
2023-04-09T15:39:32.747Z,8.35
2023-04-09T15:44:34.662Z,7.13
2023-04-09T15:49:36.928Z,8.20
2023-04-09T15:54:38.660Z,8.00
2023-04-09T15:59:40.452Z,7.63
2023-04-09T16:04:42.236Z,7.35
2023-04-09T16:09:44.050Z,8.05
2023-04-09T16:14:45.787Z,8.63
2023-04-09T16:19:47.458Z,8.88
2023-04-09T16:24:51.644Z,9.00
2023-04-09T16:29:53.277Z,9.38
2023-04-09T16:34:56.093Z,8.73
2023-04-09T16:39:58.135Z,9.25
2023-04-09T16:45:00.038Z,10.13
2023-04-09T16:50:02.925Z,9.07
2023-04-09T16:55:05.273Z,9.60
2023-04-09T17:00:07.716Z,10.25
2023-04-09T17:05:09.889Z,9.52
2023-04-09T17:10:11.620Z,9.75
2023-04-09T17:15:13.280Z,9.13
2023-04-09T17:20:14.946Z,9.30
2023-04-09T17:25:16.898Z,9.00
2023-04-09T17:30:19.828Z,9.60
2023-04-09T17:35:21.456Z,9.32
2023-04-09T17:40:23.144Z,9.55
2023-04-09T17:45:24.820Z,10.35
2023-04-09T17:50:26.410Z,10.80
2023-04-09T17:55:28.253Z,9.57
2023-04-09T18:00:29.933Z,10.15
2023-04-09T18:05:31.746Z,10.57
2023-04-09T18:10:33.570Z,10.40
2023-04-09T18:15:35.525Z,10.88
2023-04-09T18:20:37.192Z,10.93
2023-04-09T18:25:38.941Z,10.55
2023-04-09T18:30:41.835Z,11.77
2023-04-09T18:35:43.493Z,12.75
2023-04-09T18:40:45.341Z,12.07
2023-04-09T18:45:47.204Z,11.73
2023-04-09T18:50:48.934Z,10.38
2023-04-09T18:55:50.582Z,11.43
2023-04-09T19:00:52.220Z,11.40
2023-04-09T19:05:53.847Z,9.15
2023-04-09T19:10:55.601Z,12.82
2023-04-09T19:15:57.274Z,10.95
2023-04-09T19:20:59.033Z,9.70
2023-04-09T19:26:01.209Z,10.88
2023-04-09T19:31:05.860Z,9.27
2023-04-09T19:36:08.196Z,9.20
2023-04-09T19:41:34.667Z,9.00
2023-04-09T19:46:36.334Z,10.93
2023-04-09T19:51:38.024Z,12.77
2023-04-09T19:56:39.636Z,12.65
2023-04-09T20:01:41.318Z,11.90
2023-04-09T20:06:44.257Z,14.10
2023-04-09T20:11:46.594Z,14.93
2023-04-09T20:16:48.330Z,16.45
2023-04-09T20:21:50.016Z,16.90
2023-04-09T20:26:52.098Z,20.30
2023-04-09T20:31:56.731Z,22.13
2023-04-09T20:37:00.682Z,17.95
2023-04-09T20:42:02.351Z,21.58
2023-04-09T20:47:04.001Z,17.35
2023-04-09T20:52:06.990Z,16.23
2023-04-09T20:57:11.059Z,14.57
2023-04-09T21:02:14.351Z,17.30
2023-04-09T21:07:16.223Z,15.20
2023-04-09T21:12:17.831Z,15.15
2023-04-09T21:17:19.516Z,21.85
2023-04-09T21:22:21.209Z,18.15
2023-04-09T21:27:23.206Z,18.13
2023-04-09T21:32:25.273Z,19.42
2023-04-09T21:37:34.955Z,19.00
2023-04-09T21:42:39.807Z,15.75
2023-04-09T21:47:41.447Z,19.20
2023-04-09T21:52:45.098Z,20.85
2023-04-09T21:57:47.016Z,20.20
2023-04-09T22:02:53.924Z,17.15
2023-04-09T22:07:56.075Z,14.63
2023-04-09T22:12:57.720Z,14.00
2023-04-09T22:17:59.494Z,15.55
2023-04-09T22:23:02.709Z,18.73
2023-04-09T22:28:07.367Z,17.25
2023-04-09T22:33:10.196Z,16.98
2023-04-09T22:38:16.230Z,19.15
2023-04-09T22:43:29.242Z,15.20
2023-04-09T22:48:38.166Z,16.13
2023-04-09T22:53:52.729Z,15.82
2023-04-09T22:58:54.611Z,16.58
2023-04-09T23:03:56.743Z,21.58
2023-04-09T23:08:59.871Z,22.60
2023-04-09T23:14:01.598Z,17.75
2023-04-09T23:19:03.578Z,16.15
2023-04-09T23:24:05.432Z,16.63
2023-04-09T23:29:07.312Z,16.55
2023-04-09T23:34:08.951Z,15.98
2023-04-09T23:39:10.992Z,15.77
2023-04-09T23:44:12.646Z,15.35
2023-04-09T23:49:16.115Z,17.55
2023-04-09T23:54:17.741Z,15.98
2023-04-09T23:59:19.413Z,15.95
